createdAt,value
2019-04-04T03:52:24.704Z,99678.96
2019-04-04T03:54:56.500Z,99675.33
2019-04-04T03:57:27.301Z,99677.05
2019-04-04T03:59:57.770Z,99673.67
2019-04-04T04:02:28.324Z,99675.69
2019-04-04T04:05:00.887Z,99680.70
2019-04-04T04:07:31.267Z,99682.41
2019-04-04T04:10:02.423Z,99683.01
2019-04-04T04:12:33.141Z,99681.95
2019-04-04T04:15:04.640Z,99682.55
2019-04-04T04:17:36.410Z,99682.75
2019-04-04T04:20:07.104Z,99689.02
2019-04-04T04:22:37.624Z,99680.02
2019-04-04T04:25:08.343Z,99682.46
2019-04-04T04:27:39.090Z,99676.45
2019-04-04T04:30:09.630Z,99689.02
2019-04-04T04:32:40.274Z,99684.94
2019-04-04T04:35:10.845Z,99684.45
2019-04-04T04:37:42.593Z,99681.20
2019-04-04T04:40:14.946Z,99680.89
2019-04-04T04:42:45.459Z,99675.50
2019-04-04T04:45:16.091Z,99678.49
2019-04-04T04:47:46.654Z,99676.38
2019-04-04T04:50:17.151Z,99667.90
2019-04-04T04:52:47.757Z,99684.52
2019-04-04T04:55:18.315Z,99673.14
2019-04-04T04:57:48.953Z,99670.23
2019-04-04T05:00:19.585Z,99671.42
2019-04-04T05:02:52.794Z,99667.89
2019-04-04T05:05:22.527Z,99666.86
2019-04-04T05:07:54.886Z,99670.23
2019-04-04T05:10:25.308Z,99669.73
2019-04-04T05:12:56.027Z,99682.68
2019-04-04T05:15:26.581Z,99680.09
2019-04-04T05:17:57.151Z,99675.31
2019-04-04T05:20:29.869Z,99663.95
2019-04-04T05:23:00.202Z,99664.63
2019-04-04T05:25:31.812Z,99655.31
2019-04-04T05:28:06.115Z,99656.97
2019-04-04T05:30:35.806Z,99656.13
2019-04-04T05:33:06.357Z,99652.70
2019-04-04T05:35:37.995Z,99652.83
2019-04-04T05:38:12.223Z,99652.58
2019-04-04T05:40:40.980Z,99657.27
2019-04-04T05:43:14.731Z,99647.45
2019-04-04T05:45:45.231Z,99651.51
2019-04-04T05:48:16.166Z,99650.95
2019-04-04T05:50:46.727Z,99649.16
2019-04-04T05:53:17.242Z,99648.67
2019-04-04T05:55:47.753Z,99650.46
2019-04-04T05:58:21.786Z,99651.95
2019-04-04T06:00:50.746Z,99656.09
2019-04-04T06:03:21.389Z,99647.51
2019-04-04T06:05:52.160Z,99657.02
2019-04-04T06:08:23.788Z,99653.56
2019-04-04T06:10:54.360Z,99653.94
2019-04-04T06:13:25.039Z,99657.84
2019-04-04T06:15:57.322Z,99658.74
2019-04-04T06:18:27.852Z,99653.84
2019-04-04T06:20:58.481Z,99653.81
2019-04-04T06:23:29.125Z,99661.98
2019-04-04T06:25:59.682Z,99666.59
2019-04-04T06:28:30.382Z,99659.69
2019-04-04T06:31:01.021Z,99659.45
2019-04-04T06:33:33.076Z,99652.62
2019-04-04T06:36:04.035Z,99646.94
2019-04-04T06:38:34.706Z,99648.39
2019-04-04T06:41:05.305Z,99647.91
2019-04-04T06:43:35.884Z,99637.09
2019-04-04T06:46:06.561Z,99636.40
2019-04-04T06:48:37.270Z,99638.14
2019-04-04T06:51:07.937Z,99628.88
2019-04-04T06:53:38.571Z,99627.03
2019-04-04T06:56:09.198Z,99628.69
2019-04-04T06:58:40.697Z,99619.34
2019-04-04T07:01:11.410Z,99625.30
2019-04-04T07:03:42.326Z,99622.69
2019-04-04T07:06:12.889Z,99620.72
2019-04-04T07:08:45.136Z,99627.85
2019-04-04T07:11:21.390Z,99618.28
2019-04-04T07:13:48.343Z,99621.67
2019-04-04T07:16:19.077Z,99618.77
2019-04-04T07:18:49.546Z,99610.67
2019-04-04T07:21:20.690Z,99600.28
2019-04-04T07:23:51.461Z,99614.52
2019-04-04T07:26:23.060Z,99605.80
2019-04-04T07:28:54.112Z,99609.59
2019-04-04T07:31:24.901Z,99604.91
2019-04-04T07:33:55.558Z,99603.95
2019-04-04T07:36:26.126Z,99603.45
2019-04-04T07:38:58.180Z,99611.41
2019-04-04T07:41:29.045Z,99609.34
2019-04-04T07:43:59.732Z,99609.59
2019-04-04T07:46:30.469Z,99609.17
2019-04-04T07:49:01.113Z,99598.25
2019-04-04T07:51:31.735Z,99601.27
2019-04-04T07:54:02.372Z,99613.22
2019-04-04T07:56:33.000Z,99604.34
2019-04-04T07:59:03.765Z,99606.83
2019-04-04T08:01:34.301Z,99608.76
2019-04-04T08:04:06.667Z,99600.95
2019-04-04T08:06:37.501Z,99598.13
2019-04-04T08:09:08.758Z,99586.17
2019-04-04T08:11:39.357Z,99601.94
2019-04-04T08:14:09.934Z,99598.14
2019-04-04T08:16:41.971Z,99597.19
2019-04-04T08:19:12.544Z,99605.88
2019-04-04T08:21:43.320Z,99602.47
2019-04-04T08:24:13.855Z,99598.19
2019-04-04T08:26:44.395Z,99599.38
2019-04-04T08:29:15.034Z,99596.06
2019-04-04T08:31:45.755Z,99594.12
2019-04-04T08:34:16.392Z,99596.95
2019-04-04T08:36:47.026Z,99594.19
2019-04-04T08:39:17.764Z,99594.38
2019-04-04T08:41:48.398Z,99596.30
2019-04-04T08:44:18.928Z,99585.19
2019-04-04T08:46:49.680Z,99589.07
2019-04-04T08:49:20.293Z,99580.23
2019-04-04T08:51:50.924Z,99577.80
2019-04-04T08:54:21.508Z,99573.39
2019-04-04T08:56:53.380Z,99577.31
2019-04-04T08:59:24.056Z,99571.36
2019-04-04T09:01:54.789Z,99568.44
2019-04-04T09:04:25.353Z,99580.70
2019-04-04T09:06:56.076Z,99570.40
2019-04-04T09:09:26.829Z,99559.40
2019-04-04T09:11:57.529Z,99564.75
2019-04-04T09:14:28.281Z,99566.65
2019-04-04T09:16:58.897Z,99564.95
2019-04-04T09:19:29.427Z,99562.67
2019-04-04T09:22:00.193Z,99561.02
2019-04-04T09:24:30.864Z,99556.59
2019-04-04T09:27:01.491Z,99561.63
2019-04-04T09:29:33.931Z,99553.50
2019-04-04T09:32:04.641Z,99555.94
2019-04-04T09:34:35.210Z,99546.16
2019-04-04T09:37:08.697Z,99544.67
2019-04-04T09:39:40.274Z,99558.67
2019-04-04T09:42:11.369Z,99549.65
2019-04-04T09:44:41.848Z,99545.13
2019-04-04T09:47:12.545Z,99542.39
2019-04-04T09:49:43.076Z,99562.47
2019-04-04T09:52:13.707Z,99547.73
2019-04-04T09:54:44.237Z,99549.31
2019-04-04T09:57:14.862Z,99552.46
2019-04-04T09:59:46.008Z,99548.64
2019-04-04T10:02:16.553Z,99549.56
2019-04-04T10:04:47.125Z,99552.48
2019-04-04T10:07:17.812Z,99550.47
2019-04-04T10:09:48.439Z,99552.72
2019-04-04T10:12:19.077Z,99541.94
2019-04-04T10:14:49.641Z,99550.80
2019-04-04T10:17:20.216Z,99553.77
2019-04-04T10:19:50.673Z,99534.59
2019-04-04T10:22:21.305Z,99538.25
2019-04-04T10:24:51.933Z,99550.69
2019-04-04T10:27:22.573Z,99540.95
2019-04-04T10:29:53.204Z,99534.45
2019-04-04T10:32:23.833Z,99535.49
2019-04-04T10:34:54.572Z,99530.55
2019-04-04T10:37:25.128Z,99540.68
2019-04-04T10:39:55.683Z,99528.79
2019-04-04T10:42:26.376Z,99524.66
2019-04-04T10:44:56.908Z,99530.38
2019-04-04T10:47:27.535Z,99521.80
2019-04-04T10:50:54.409Z,99529.88
2019-04-04T10:53:25.124Z,99522.80
2019-04-04T10:55:55.578Z,99517.83
2019-04-04T10:58:26.183Z,99517.98
2019-04-04T11:00:58.044Z,99515.83
2019-04-04T11:03:28.616Z,99508.08
2019-04-04T11:05:59.082Z,99511.34
2019-04-04T11:08:29.692Z,99513.89
2019-04-04T11:11:00.474Z,99518.05
2019-04-04T11:13:33.808Z,99507.52
2019-04-04T11:16:04.413Z,99514.13
2019-04-04T11:18:35.280Z,99523.08
2019-04-04T11:21:05.913Z,99516.91
2019-04-04T11:23:36.504Z,99516.76
2019-04-04T11:26:07.150Z,99511.78
2019-04-04T11:28:37.680Z,99507.84
2019-04-04T11:31:08.245Z,99532.23
2019-04-04T11:33:38.948Z,99521.17
2019-04-04T11:36:09.680Z,99522.54
2019-04-04T11:38:44.082Z,99516.66
2019-04-04T11:41:14.123Z,99509.72
2019-04-04T11:43:44.747Z,99510.89
2019-04-04T11:46:15.390Z,99507.41
2019-04-04T11:48:46.020Z,99513.57
2019-04-04T11:51:16.662Z,99507.97
2019-04-04T11:53:47.222Z,99508.11
2019-04-04T11:56:17.824Z,99511.70
